Time;durP1;ratioP1;P1;durP2;ratioP2;P2;SDS_P1;SDS_P2;PMS_P1;PMS_P2;Temp;Humidity;BMP_temperature;BMP_pressure;BME280_temperature;BME280_humidity;BME280_pressure;Samples;Min_cycle;Max_cycle;Signal;HPM_P1;HPM_P2
2022/11/19 00:00:34;;;;;;;35.40;25.65;;;;;;;5.69;100.00;100675.41;4990710;28;20054;-86
2022/11/19 00:02:59;;;;;;;35.40;27.27;;;;;;;5.63;100.00;100676.59;4989453;28;20471;-86
2022/11/19 00:05:25;;;;;;;36.78;27.70;;;;;;;5.59;100.00;100683.75;4990366;28;20034;-87
2022/11/19 00:07:51;;;;;;;37.03;28.90;;;;;;;5.54;100.00;100688.38;4990371;28;20386;-87
2022/11/19 00:10:17;;;;;;;40.15;30.02;;;;;;;5.45;100.00;100690.66;4990361;28;20042;-87
2022/11/19 00:12:54;;;;;;;38.83;29.58;;;;;;;5.33;100.00;100687.81;4990351;28;20018;-86
2022/11/19 00:15:22;;;;;;;40.85;30.83;;;;;;;5.27;100.00;100689.91;4990901;28;20034;-86
2022/11/19 00:17:47;;;;;;;41.42;30.88;;;;;;;5.20;100.00;100691.16;4990734;28;20026;-87
2022/11/19 00:20:13;;;;;;;44.55;31.25;;;;;;;5.16;100.00;100698.28;4972019;28;20743;-86
2022/11/19 00:22:42;;;;;;;41.13;31.52;;;;;;;5.12;100.00;100694.19;4990756;28;20041;-86
2022/11/19 00:25:11;;;;;;;40.53;30.17;;;;;;;5.12;100.00;100694.19;4990511;28;20106;-86
2022/11/19 00:27:36;;;;;;;42.13;30.45;;;;;;;5.10;100.00;100697.78;4977793;28;20038;-81
2022/11/19 00:30:03;;;;;;;46.30;32.20;;;;;;;5.08;100.00;100704.84;4986905;28;20022;-86
2022/11/19 00:32:30;;;;;;;42.10;31.25;;;;;;;5.04;100.00;100699.81;5000805;28;20030;-86
2022/11/19 00:34:56;;;;;;;40.85;30.35;;;;;;;5.03;100.00;100698.13;4974266;28;20027;-85
2022/11/19 00:37:21;;;;;;;40.55;31.00;;;;;;;5.01;100.00;100705.19;4974984;28;20030;-86
2022/11/19 00:39:47;;;;;;;40.90;30.77;;;;;;;4.92;100.00;100700.47;4986212;28;20026;-86
2022/11/19 00:42:13;;;;;;;45.85;32.10;;;;;;;4.95;100.00;100704.66;4992976;28;20135;-86
2022/11/19 00:44:42;;;;;;;45.47;30.52;;;;;;;4.79;100.00;100709.81;4976693;28;20030;-86
2022/11/19 00:47:07;;;;;;;40.45;30.30;;;;;;;4.85;100.00;100703.47;4987691;28;20172;-86
2022/11/19 00:49:32;;;;;;;43.25;32.58;;;;;;;4.77;100.00;100701.25;4975582;28;20061;-86
2022/11/19 00:51:58;;;;;;;41.97;31.45;;;;;;;4.77;100.00;100700.41;4989139;28;20719;-86
2022/11/19 00:54:23;;;;;;;40.00;30.02;;;;;;;4.72;100.00;100700.66;4992966;28;20018;-86
2022/11/19 00:56:49;;;;;;;41.65;29.80;;;;;;;4.67;100.00;100695.69;4991976;28;20026;-86
2022/11/19 00:59:14;;;;;;;40.90;30.65;;;;;;;4.67;100.00;100708.72;4993227;28;20085;-87
2022/11/19 01:01:39;;;;;;;44.17;31.05;;;;;;;4.68;100.00;100706.94;4992222;28;20053;-86
2022/11/19 01:04:05;;;;;;;43.42;31.08;;;;;;;4.61;100.00;100711.63;4991228;28;20085;-86
2022/11/19 01:06:31;;;;;;;41.78;29.52;;;;;;;4.53;100.00;100715.56;4993608;28;20038;-86
2022/11/19 01:08:57;;;;;;;39.05;29.85;;;;;;;4.50;100.00;100718.31;4992650;28;20426;-86
2022/11/19 01:11:33;;;;;;;43.35;31.45;;;;;;;4.47;100.00;100724.53;4992584;28;20113;-87
2022/11/19 01:13:59;;;;;;;39.55;30.27;;;;;;;4.42;100.00;100725.69;4993434;28;20089;-87
2022/11/19 01:16:28;;;;;;;44.38;32.53;;;;;;;4.42;100.00;100728.28;4992838;28;20214;-87
2022/11/19 01:18:54;;;;;;;46.08;32.78;;;;;;;4.40;100.00;100736.16;4992952;28;20034;-87
2022/11/19 01:21:22;;;;;;;44.40;32.08;;;;;;;4.36;100.00;100730.25;4994186;28;20057;-86
2022/11/19 01:23:47;;;;;;;40.38;32.15;;;;;;;4.40;100.00;100734.44;4992338;28;20092;-87
2022/11/19 01:26:14;;;;;;;42.15;33.03;;;;;;;4.40;100.00;100736.16;4993808;28;20035;-87
2022/11/19 01:28:40;;;;;;;47.10;34.28;;;;;;;4.40;100.00;100744.84;4993208;28;20026;-81
2022/11/19 01:31:20;;;;;;;44.88;32.88;;;;;;;4.38;100.00;100749.25;4991373;28;20034;-88
2022/11/19 01:33:46;;;;;;;42.10;33.45;;;;;;;4.35;100.00;100746.81;4993421;28;20023;-87
2022/11/19 01:36:22;;;;;;;41.80;33.22;;;;;;;4.34;100.00;100757.31;4995184;28;20023;-87
2022/11/19 01:38:50;;;;;;;48.45;33.50;;;;;;;4.32;100.00;100753.94;4992654;28;20034;-87
2022/11/19 01:41:28;;;;;;;45.00;34.13;;;;;;;4.27;100.00;100758.53;4993364;28;20106;-88
2022/11/19 01:43:59;;;;;;;45.60;33.75;;;;;;;4.23;100.00;100762.22;4994133;28;20078;-87
2022/11/19 01:46:29;;;;;;;43.25;33.67;;;;;;;4.21;100.00;100764.88;4994224;28;20060;-87
2022/11/19 01:49:00;;;;;;;42.28;32.42;;;;;;;4.26;100.00;100777.69;4993467;28;20030;-87
2022/11/19 01:51:51;;;;;;;42.85;30.77;;;;;;;4.21;100.00;100766.66;4993653;28;20038;-86
2022/11/19 01:54:30;;;;;;;39.17;31.67;;;;;;;4.14;100.00;100773.06;4968932;28;20034;-87
2022/11/19 01:57:00;;;;;;;43.53;33.58;;;;;;;4.11;100.00;100774.06;4986366;28;20038;-86
2022/11/19 01:59:27;;;;;;;43.20;34.17;;;;;;;4.06;100.00;100776.91;4990936;28;20112;-87
2022/11/19 02:01:52;;;;;;;42.80;33.63;;;;;;;4.03;100.00;100776.22;4993057;28;20026;-87
2022/11/19 02:04:19;;;;;;;38.42;32.70;;;;;;;4.03;100.00;100781.41;4992575;28;20391;-86
2022/11/19 02:06:45;;;;;;;41.90;33.42;;;;;;;3.97;100.00;100772.13;4992722;28;20037;-87
2022/11/19 02:09:10;;;;;;;41.95;33.22;;;;;;;3.98;100.00;100776.41;4990874;28;20038;-86
2022/11/19 02:12:01;;;;;;;42.60;32.28;;;;;;;4.01;100.00;100778.03;4992301;28;20390;-87
2022/11/19 02:14:33;;;;;;;38.92;33.20;;;;;;;3.97;100.00;100781.69;4993034;28;20030;-87
2022/11/19 02:17:15;;;;;;;38.42;32.45;;;;;;;3.99;100.00;100785.06;4988559;28;20823;-86
2022/11/19 02:20:11;;;;;;;37.05;31.27;;;;;;;3.95;100.00;100780.91;4992033;28;20426;-86
2022/11/19 02:23:00;;;;;;;37.45;30.45;;;;;;;3.95;100.00;100778.31;4975559;28;20027;-87
2022/11/19 02:25:37;;;;;;;37.58;31.48;;;;;;;3.86;100.00;100779.59;4973621;28;20045;-86
2022/11/19 02:28:08;;;;;;;40.53;31.45;;;;;;;3.88;100.00;100782.13;4989242;28;20030;-85
2022/11/19 02:31:17;;;;;;;40.25;31.77;;;;;;;3.85;100.00;100787.47;4992288;28;20038;-85
2022/11/19 02:34:21;;;;;;;40.15;31.63;;;;;;;3.80;100.00;100786.84;4938488;28;20108;-85
2022/11/19 02:36:52;;;;;;;37.63;27.80;;;;;;;3.74;100.00;100786.22;4911708;29;20123;-86
2022/11/19 02:39:39;;;;;;;33.55;27.33;;;;;;;3.70;100.00;100791.66;4912336;29;20393;-86
2022/11/19 02:42:07;;;;;;;32.60;26.20;;;;;;;3.64;100.00;100794.53;4963237;28;20502;-85
2022/11/19 02:44:58;;;;;;;31.77;26.23;;;;;;;3.62;100.00;100791.16;4973018;28;20522;-86
2022/11/19 02:47:47;;;;;;;28.08;25.05;;;;;;;3.61;100.00;100789.47;4980193;28;20390;-86
2022/11/19 02:50:30;;;;;;;27.98;23.33;;;;;;;3.55;100.00;100800.97;4988720;28;20046;-86
2022/11/19 02:52:57;;;;;;;26.48;23.35;;;;;;;3.51;100.00;100798.59;4990949;28;20092;-87
2022/11/19 02:55:22;;;;;;;25.85;23.08;;;;;;;3.47;100.00;100795.28;4990703;28;20022;-82
2022/11/19 02:57:58;;;;;;;26.15;23.05;;;;;;;3.44;100.00;100805.84;4991234;28;20096;-86
2022/11/19 03:06:22;;;;;;;26.92;22.98;;;;;;;3.32;100.00;100811.59;4990695;28;20410;-88
2022/11/19 03:08:47;;;;;;;24.95;21.80;;;;;;;3.28;100.00;100812.66;4990279;28;20033;-88
2022/11/19 03:11:25;;;;;;;23.67;21.17;;;;;;;3.24;100.00;100811.09;4990746;28;20805;-87
2022/11/19 03:16:53;;;;;;;23.13;20.70;;;;;;;3.23;100.00;100814.59;4991565;28;20049;-87
2022/11/19 03:19:28;;;;;;;22.27;20.00;;;;;;;3.18;100.00;100819.13;4990778;28;20029;-87
2022/11/19 03:21:59;;;;;;;23.88;20.33;;;;;;;3.12;100.00;100823.69;4973812;28;20026;-87
2022/11/19 03:24:50;;;;;;;23.65;21.15;;;;;;;3.11;100.00;100827.22;4973943;28;20032;-87
2022/11/19 03:27:40;;;;;;;22.73;20.30;;;;;;;3.06;100.00;100839.56;4989301;28;20033;-88
2022/11/19 03:30:07;;;;;;;23.58;21.13;;;;;;;3.01;100.00;100831.13;4989797;28;20038;-88
2022/11/19 03:32:39;;;;;;;24.02;21.52;;;;;;;3.01;100.00;100833.72;4991973;28;20022;-87
2022/11/19 03:35:10;;;;;;;25.20;22.58;;;;;;;3.01;100.00;100835.47;4988951;28;20105;-87
2022/11/19 03:37:42;;;;;;;23.70;21.23;;;;;;;2.95;100.00;100834.00;4991265;28;20026;-86
2022/11/19 03:40:10;;;;;;;23.67;21.15;;;;;;;2.95;100.00;100830.53;4991019;28;20044;-86
2022/11/19 03:42:41;;;;;;;25.60;22.88;;;;;;;2.93;100.00;100832.38;4991176;28;20129;-87
2022/11/19 03:45:15;;;;;;;31.08;23.63;;;;;;;2.93;100.00;100827.16;4989069;28;20034;-87
2022/11/19 03:47:44;;;;;;;26.17;23.23;;;;;;;2.93;100.00;100838.41;4991110;28;20030;-82
2022/11/19 03:50:22;;;;;;;26.08;23.27;;;;;;;2.89;100.00;100841.19;4990622;28;20013;-87
2022/11/19 03:52:48;;;;;;;27.20;24.13;;;;;;;2.93;100.00;100843.59;4989876;28;20026;-87
2022/11/19 03:55:15;;;;;;;28.67;24.50;;;;;;;2.93;100.00;100838.41;4990749;28;20034;-87
2022/11/19 03:57:41;;;;;;;28.02;24.80;;;;;;;2.91;100.00;100839.38;4989502;28;20030;-87
2022/11/19 04:00:07;;;;;;;31.30;24.63;;;;;;;2.92;100.00;100849.72;4990711;28;20038;-87
2022/11/19 04:02:32;;;;;;;28.67;25.40;;;;;;;2.85;100.00;100847.44;4990505;28;20057;-87
2022/11/19 04:04:57;;;;;;;28.05;25.02;;;;;;;2.86;100.00;100846.53;4990134;28;20338;-88
2022/11/19 04:07:23;;;;;;;30.77;25.73;;;;;;;2.89;100.00;100847.25;4990511;28;20177;-87
2022/11/19 04:09:49;;;;;;;29.92;26.20;;;;;;;2.85;100.00;100856.09;4977308;28;20506;-87
2022/11/19 04:12:20;;;;;;;29.63;26.15;;;;;;;2.82;100.00;100851.00;4985430;28;20030;-87
2022/11/19 04:14:46;;;;;;;30.75;26.77;;;;;;;2.87;100.00;100854.25;4990575;28;20722;-87
2022/11/19 04:17:13;;;;;;;31.40;27.17;;;;;;;2.87;100.00;100859.47;4989185;28;20049;-87
2022/11/19 04:19:42;;;;;;;28.63;25.52;;;;;;;2.78;100.00;100857.22;4989640;28;20030;-86
2022/11/19 04:22:08;;;;;;;30.42;27.13;;;;;;;2.76;100.00;100856.44;4990034;28;20372;-87
2022/11/19 04:24:33;;;;;;;31.08;27.67;;;;;;;2.74;100.00;100863.44;4972808;28;20174;-87
2022/11/19 04:26:58;;;;;;;31.60;26.77;;;;;;;2.72;100.00;100875.66;4989159;28;20026;-86
2022/11/19 04:29:24;;;;;;;32.80;28.73;;;;;;;2.69;100.00;100865.41;4989616;28;20023;-87
2022/11/19 04:31:50;;;;;;;33.60;29.05;;;;;;;2.67;100.00;100880.19;4990009;28;20506;-80
2022/11/19 04:34:15;;;;;;;35.38;29.88;;;;;;;2.63;100.00;100895.06;4988927;28;20040;-88
2022/11/19 04:36:41;;;;;;;33.45;29.85;;;;;;;2.63;100.00;100881.25;4989840;28;20105;-86
2022/11/19 04:39:07;;;;;;;33.15;28.85;;;;;;;2.58;100.00;100885.78;4988845;28;20081;-87
2022/11/19 04:41:32;;;;;;;35.08;29.85;;;;;;;2.56;100.00;100885.00;4988078;28;20053;-88
2022/11/19 04:43:58;;;;;;;34.45;30.15;;;;;;;2.53;100.00;100880.78;4987835;28;20074;-88
2022/11/19 04:46:23;;;;;;;35.58;30.02;;;;;;;2.53;100.00;100887.72;4988593;28;20518;-87
2022/11/19 04:48:48;;;;;;;34.33;29.75;;;;;;;2.50;100.00;100880.91;4989214;28;20041;-81
2022/11/19 04:51:14;;;;;;;34.72;30.73;;;;;;;2.48;100.00;100893.94;4988730;28;20041;-88
2022/11/19 04:53:40;;;;;;;32.33;28.92;;;;;;;2.47;100.00;100887.06;4988810;28;20023;-87
2022/11/19 04:56:06;;;;;;;36.72;30.60;;;;;;;2.44;100.00;100892.38;4989354;28;20030;-87
2022/11/19 04:58:32;;;;;;;34.42;30.08;;;;;;;2.39;100.00;100894.28;4992822;28;20026;-87
2022/11/19 05:00:57;;;;;;;35.08;30.35;;;;;;;2.36;100.00;100904.78;4989203;28;20037;-88
2022/11/19 05:03:23;;;;;;;36.22;31.48;;;;;;;2.40;100.00;100895.13;4989956;28;20495;-87
2022/11/19 05:05:48;;;;;;;38.50;31.95;;;;;;;2.39;100.00;100894.28;4990628;28;20502;-87
2022/11/19 05:08:14;;;;;;;35.53;31.48;;;;;;;2.38;100.00;100895.19;4989480;28;20034;-87
2022/11/19 05:10:39;;;;;;;38.00;31.90;;;;;;;2.39;100.00;100898.63;4989899;28;20030;-87
2022/11/19 05:13:04;;;;;;;37.25;31.77;;;;;;;2.38;100.00;100902.97;4990075;28;20034;-87
2022/11/19 05:15:29;;;;;;;38.63;32.97;;;;;;;2.38;100.00;100920.31;4991462;28;20050;-87
2022/11/19 05:17:55;;;;;;;36.60;32.22;;;;;;;2.35;100.00;100921.28;4993143;28;20033;-86
2022/11/19 05:20:20;;;;;;;36.90;31.98;;;;;;;2.30;100.00;100912.81;4992873;28;20527;-87
2022/11/19 05:22:45;;;;;;;36.13;32.15;;;;;;;2.34;100.00;100919.59;4992950;28;20026;-86
2022/11/19 05:25:11;;;;;;;36.65;32.47;;;;;;;2.33;100.00;100914.44;4993046;28;20027;-86
2022/11/19 05:27:36;;;;;;;38.15;32.50;;;;;;;2.34;100.00;100916.97;4991861;28;20117;-87
2022/11/19 05:30:04;;;;;;;37.83;33.72;;;;;;;2.36;100.00;100924.72;4993337;28;20038;-88
2022/11/19 05:32:30;;;;;;;38.85;33.10;;;;;;;2.35;100.00;100923.03;4994469;28;20355;-87
2022/11/19 05:34:55;;;;;;;37.65;32.85;;;;;;;2.38;100.00;100923.75;4976100;28;20019;-86
2022/11/19 05:37:20;;;;;;;37.33;33.28;;;;;;;2.36;100.00;100928.16;4970908;28;20031;-87
2022/11/19 05:39:45;;;;;;;38.72;33.47;;;;;;;2.39;100.00;100929.78;4973936;28;20105;-87
2022/11/19 05:42:11;;;;;;;39.30;32.08;;;;;;;2.39;100.00;100935.81;4973289;28;20027;-86
2022/11/19 05:44:37;;;;;;;37.35;33.17;;;;;;;2.38;100.00;100926.34;4973602;28;20041;-88
2022/11/19 05:47:03;;;;;;;36.45;32.55;;;;;;;2.39;100.00;100935.81;4984532;28;20025;-87
2022/11/19 05:49:28;;;;;;;39.72;34.22;;;;;;;2.34;100.00;100931.72;4987970;28;20053;-89
2022/11/19 05:51:53;;;;;;;36.30;32.40;;;;;;;2.30;100.00;100936.19;4992504;28;20034;-89
2022/11/19 05:54:19;;;;;;;36.85;32.88;;;;;;;2.33;100.00;100936.06;4989237;28;20073;-89
2022/11/19 05:56:44;;;;;;;38.42;33.53;;;;;;;2.32;100.00;100946.50;4991649;28;20041;-89
2022/11/19 05:59:09;;;;;;;37.13;33.17;;;;;;;2.28;100.00;100947.53;4991045;28;20532;-88
2022/11/19 06:01:35;;;;;;;39.28;35.03;;;;;;;2.28;100.00;100945.78;4992257;28;20084;-89
2022/11/19 06:04:00;;;;;;;37.83;33.83;;;;;;;2.30;100.00;100946.56;4992229;28;20044;-89
2022/11/19 06:06:25;;;;;;;38.55;34.45;;;;;;;2.24;100.00;100952.00;4990057;28;20063;-89
2022/11/19 06:08:51;;;;;;;39.58;35.40;;;;;;;2.23;100.00;100952.91;4975180;28;20050;-89
2022/11/19 06:14:00;;;;;;;40.38;34.65;;;;;;;2.24;100.00;100949.41;4992749;28;20092;-89
2022/11/19 06:16:26;;;;;;;39.55;35.30;;;;;;;2.18;100.00;100952.22;4992878;28;20026;-89
2022/11/19 06:18:52;;;;;;;39.47;35.30;;;;;;;2.15;100.00;100957.53;4991587;28;20430;-90
2022/11/19 06:21:17;;;;;;;39.90;35.70;;;;;;;2.15;100.00;100967.91;4990497;28;20030;-90
2022/11/19 06:23:43;;;;;;;41.40;35.65;;;;;;;2.09;100.00;100973.34;4991667;28;20037;-89
2022/11/19 06:26:09;;;;;;;41.10;36.60;;;;;;;2.08;100.00;100979.44;4990301;28;20554;-89
2022/11/19 06:28:34;;;;;;;40.42;36.13;;;;;;;2.06;100.00;100979.50;4991570;28;20026;-88
2022/11/19 06:31:00;;;;;;;41.35;37.10;;;;;;;2.05;100.00;100987.34;4990555;28;20037;-89
2022/11/19 06:33:25;;;;;;;42.53;37.90;;;;;;;2.04;100.00;100991.69;4990793;28;20084;-88
2022/11/19 06:35:51;;;;;;;41.72;37.28;;;;;;;2.02;100.00;100997.81;4974776;28;20033;-88
2022/11/19 06:38:16;;;;;;;42.90;38.40;;;;;;;2.04;100.00;101001.22;4992066;28;20026;-89
2022/11/19 06:40:44;;;;;;;45.35;39.58;;;;;;;2.02;100.00;101000.44;4990617;28;20453;-89
2022/11/19 06:43:09;;;;;;;43.28;38.70;;;;;;;2.02;100.00;100997.81;4992995;28;20092;-89
2022/11/19 06:45:34;;;;;;;44.22;39.45;;;;;;;1.99;100.00;101000.50;5002982;28;20043;-89
2022/11/19 06:48:00;;;;;;;44.22;39.42;;;;;;;2.01;100.00;101001.31;4990600;28;20034;-82
2022/11/19 06:50:25;;;;;;;43.42;38.83;;;;;;;1.98;100.00;100997.06;4991283;28;20022;-90
2022/11/19 06:52:50;;;;;;;45.47;40.60;;;;;;;1.95;100.00;100994.59;4991459;28;20030;-89
2022/11/19 06:55:16;;;;;;;45.65;40.65;;;;;;;1.91;100.00;101005.97;4991334;28;20113;-89
2022/11/19 06:57:41;;;;;;;44.70;39.90;;;;;;;1.86;100.00;101006.13;4991495;28;20588;-89
2022/11/19 07:00:07;;;;;;;46.33;41.25;;;;;;;1.88;100.00;101011.28;4992179;28;20036;-88
2022/11/19 07:02:32;;;;;;;45.83;40.35;;;;;;;1.88;100.00;101011.28;4990506;28;20023;-88
2022/11/19 07:04:58;;;;;;;46.92;41.28;;;;;;;1.91;100.00;101023.28;4991451;28;20061;-81
2022/11/19 07:07:24;;;;;;;47.47;41.78;;;;;;;1.88;100.00;101017.31;4972324;28;20022;-81
2022/11/19 07:09:52;;;;;;;48.00;41.08;;;;;;;1.89;100.00;101028.53;4991406;28;20390;-88
2022/11/19 07:12:17;;;;;;;52.45;41.80;;;;;;;1.84;100.00;101026.09;4991100;28;20034;-88
2022/11/19 07:14:43;;;;;;;45.75;40.75;;;;;;;1.80;100.00;101027.13;4989663;28;20110;-88
2022/11/19 07:17:08;;;;;;;47.58;41.25;;;;;;;1.76;100.00;101033.31;4971049;28;20026;-88
2022/11/19 07:19:36;;;;;;;49.63;42.75;;;;;;;1.71;100.00;101037.81;4990971;28;20033;-89
2022/11/19 07:22:01;;;;;;;47.83;41.92;;;;;;;1.70;100.00;101038.72;4990686;28;20061;-89
2022/11/19 07:24:27;;;;;;;51.40;42.42;;;;;;;1.66;100.00;101042.31;4989252;28;20053;-81
2022/11/19 07:26:54;;;;;;;50.55;42.92;;;;;;;1.66;100.00;101046.66;4990243;28;20113;-89
2022/11/19 07:29:19;;;;;;;52.75;44.33;;;;;;;1.64;100.00;101048.47;4989534;28;20014;-88
2022/11/19 07:31:49;;;;;;;50.17;42.70;;;;;;;1.64;100.00;101049.31;4972988;28;20061;-91
2022/11/19 07:34:20;;;;;;;52.92;42.40;;;;;;;1.62;100.00;101056.28;4989581;28;20018;-89
2022/11/19 07:36:46;;;;;;;52.75;43.10;;;;;;;1.61;100.00;101058.94;4988211;28;20022;-89
2022/11/19 07:39:12;;;;;;;50.60;42.72;;;;;;;1.57;100.00;101059.00;4989654;28;20081;-89
2022/11/19 07:44:22;;;;;;;49.55;41.60;;;;;;;1.59;100.00;101066.72;4989113;28;20061;-81
2022/11/19 07:46:51;;;;;;;48.10;40.72;;;;;;;1.57;100.00;101078.91;4990704;28;20018;-89
2022/11/19 07:49:16;;;;;;;51.13;41.38;;;;;;;1.56;100.00;101075.47;4988447;28;20026;-88
2022/11/19 07:51:42;;;;;;;53.58;42.83;;;;;;;1.54;100.00;101079.84;4989917;28;20035;-88
2022/11/19 07:54:13;;;;;;;53.22;42.63;;;;;;;1.54;100.00;101077.25;4973010;28;20022;-88
2022/11/19 07:56:39;;;;;;;49.90;42.20;;;;;;;1.52;100.00;101081.66;4972474;28;20030;-89
2022/11/19 07:59:05;;;;;;;49.40;42.03;;;;;;;1.53;100.00;101078.16;4990106;28;20073;-88
2022/11/19 08:01:30;;;;;;;51.22;41.75;;;;;;;1.55;100.00;101075.50;4990533;28;20037;-88
2022/11/19 08:03:56;;;;;;;50.30;41.63;;;;;;;1.56;100.00;101077.22;4988846;28;20035;-88
2022/11/19 08:06:23;;;;;;;50.25;42.22;;;;;;;1.63;100.00;101081.31;4990188;28;20026;-89
2022/11/19 08:08:48;;;;;;;52.42;42.55;;;;;;;1.63;100.00;101088.25;4990909;28;20041;-88
2022/11/19 08:11:15;;;;;;;52.67;43.05;;;;;;;1.66;100.00;101083.81;4988809;28;20532;-82
2022/11/19 08:13:42;;;;;;;50.72;41.25;;;;;;;1.65;100.00;101087.31;4991862;28;20023;-88
2022/11/19 08:18:57;;;;;;;49.28;41.53;;;;;;;1.67;100.00;101088.09;4990332;28;20104;-86
2022/11/19 08:21:22;;;;;;;47.58;40.10;;;;;;;1.70;100.00;101088.00;4993573;28;20031;-87
2022/11/19 08:23:48;;;;;;;48.67;40.78;;;;;;;1.70;99.68;101092.34;4993146;28;20118;-86
2022/11/19 08:26:13;;;;;;;47.50;40.05;;;;;;;1.65;98.97;101097.66;4991022;28;20038;-87
2022/11/19 08:28:38;;;;;;;48.50;40.72;;;;;;;1.69;99.81;101098.41;4992617;28;20043;-87
2022/11/19 08:31:08;;;;;;;50.33;41.78;;;;;;;1.70;100.00;101105.31;4991213;28;20459;-86
2022/11/19 08:33:34;;;;;;;48.45;40.42;;;;;;;1.65;99.37;101097.66;4972624;28;20489;-81
2022/11/19 08:35:59;;;;;;;48.60;39.92;;;;;;;1.69;99.77;101094.06;4975594;28;20068;-88
2022/11/19 08:38:25;;;;;;;49.72;40.95;;;;;;;1.67;99.63;101103.66;4990578;28;20088;-87
2022/11/19 08:40:51;;;;;;;49.25;40.55;;;;;;;1.72;98.80;101109.53;4987941;28;20026;-88
2022/11/19 08:43:17;;;;;;;48.75;40.10;;;;;;;1.71;99.01;101107.84;4979620;28;20061;-89
2022/11/19 08:45:51;;;;;;;47.92;40.35;;;;;;;1.72;99.34;101106.94;4991270;28;20026;-89
2022/11/19 08:48:16;;;;;;;50.00;39.92;;;;;;;1.70;98.65;101102.72;4974559;28;20402;-89
2022/11/19 08:50:42;;;;;;;49.75;41.03;;;;;;;1.74;99.69;101115.50;4994020;28;20026;-88
2022/11/19 08:53:07;;;;;;;54.10;46.72;;;;;;;1.74;99.13;101112.94;4995324;28;20054;-81
2022/11/19 08:55:32;;;;;;;51.22;42.78;;;;;;;1.79;100.00;101118.81;4988001;28;20062;-88
2022/11/19 08:58:06;;;;;;;69.47;51.92;;;;;;;1.79;99.79;101129.19;4984394;28;20033;-82
2022/11/19 09:00:34;;;;;;;73.30;55.13;;;;;;;1.77;99.44;101117.16;4993329;28;20205;-89
2022/11/19 09:02:59;;;;;;;66.38;50.90;;;;;;;1.75;98.09;101122.41;4993601;28;20058;-89
2022/11/19 09:05:25;;;;;;;45.42;38.95;;;;;;;1.70;97.32;101126.91;4991170;28;20052;-88
2022/11/19 09:07:53;;;;;;;51.90;42.28;;;;;;;1.71;97.59;101123.41;4991184;28;20053;-82
2022/11/19 09:10:19;;;;;;;52.55;44.63;;;;;;;1.72;98.25;101127.69;4976558;28;20072;-87
2022/11/19 09:12:44;;;;;;;48.65;40.80;;;;;;;1.74;98.01;101130.22;4994096;28;20030;-88
2022/11/19 09:15:11;;;;;;;47.83;39.47;;;;;;;1.75;97.54;101134.53;4993305;28;20030;-87
2022/11/19 09:17:36;;;;;;;48.47;40.70;;;;;;;1.76;98.32;101131.88;4993490;28;20498;-87
2022/11/19 09:20:05;;;;;;;45.72;39.83;;;;;;;1.73;97.44;101139.75;4994081;28;20058;-87
2022/11/19 09:22:30;;;;;;;47.30;39.30;;;;;;;1.78;97.84;101130.06;4992813;28;20395;-88
2022/11/19 09:24:56;;;;;;;46.30;38.53;;;;;;;1.78;98.24;101137.84;4992416;28;20026;-87
2022/11/19 09:27:22;;;;;;;46.35;38.65;;;;;;;1.79;97.74;101139.56;4993089;28;20051;-88
2022/11/19 09:29:47;;;;;;;42.80;37.13;;;;;;;1.78;97.88;101145.63;4993652;28;20033;-87
2022/11/19 09:32:13;;;;;;;45.78;38.35;;;;;;;1.74;97.15;101153.56;4985098;28;20080;-87
2022/11/19 09:34:40;;;;;;;45.08;37.83;;;;;;;1.71;97.22;101159.72;4991705;28;20093;-88
2022/11/19 09:37:07;;;;;;;46.25;37.22;;;;;;;1.67;96.29;101163.31;4998413;28;20033;-87
2022/11/19 09:39:33;;;;;;;45.25;35.95;;;;;;;1.67;96.86;101158.13;5015395;28;20041;-87
2022/11/19 09:42:20;;;;;;;47.70;37.83;;;;;;;1.70;97.32;101167.53;4992644;28;20030;-87
2022/11/19 09:45:01;;;;;;;45.78;38.13;;;;;;;1.76;98.66;101163.00;4988919;28;20043;-87
2022/11/19 09:48:17;;;;;;;47.17;36.70;;;;;;;1.72;96.33;101171.78;4993351;28;20050;-88
2022/11/19 09:51:00;;;;;;;45.72;36.08;;;;;;;1.67;96.36;101173.69;4918195;29;20107;-89
2022/11/19 09:53:30;;;;;;;48.55;37.55;;;;;;;1.59;95.63;101180.81;4915611;29;20114;-87
2022/11/19 09:55:58;;;;;;;47.78;37.75;;;;;;;1.56;95.87;101186.97;4964089;28;20045;-87
2022/11/19 09:58:35;;;;;;;45.70;36.78;;;;;;;1.60;96.92;101192.03;4992067;28;20029;-86
2022/11/19 10:01:01;;;;;;;44.97;36.83;;;;;;;1.56;96.38;101183.53;4980854;28;20023;-89
2022/11/19 10:03:26;;;;;;;45.40;36.92;;;;;;;1.54;96.21;101183.56;4991001;28;20517;-88
2022/11/19 10:06:20;;;;;;;47.38;37.95;;;;;;;1.56;96.65;101181.78;4993058;28;20022;-87
2022/11/19 10:09:04;;;;;;;46.60;37.70;;;;;;;1.55;96.50;101184.41;4992820;28;20041;-89
2022/11/19 10:11:35;;;;;;;47.63;37.58;;;;;;;1.56;97.70;101188.72;4984725;28;20022;-89
2022/11/19 10:14:33;;;;;;;48.97;37.42;;;;;;;1.63;98.08;101187.66;4990707;28;20391;-88
2022/11/19 10:17:01;;;;;;;46.22;36.90;;;;;;;1.62;97.28;101185.94;4988636;28;20033;-89
2022/11/19 10:19:55;;;;;;;48.30;37.30;;;;;;;1.64;97.20;101196.28;4993163;28;20037;-88
2022/11/19 10:22:36;;;;;;;47.75;37.13;;;;;;;1.56;96.52;101201.66;4955045;28;20042;-87
2022/11/19 10:25:15;;;;;;;45.03;36.63;;;;;;;1.51;95.89;101200.97;4995695;28;20050;-89
2022/11/19 10:27:50;;;;;;;51.22;42.47;;;;;;;1.47;95.41;101205.41;4977579;28;20446;-89
2022/11/19 10:30:22;;;;;;;64.10;46.95;;;;;;;1.44;96.18;101207.25;4992388;28;20389;-89
2022/11/19 10:33:15;;;;;;;48.20;38.10;;;;;;;1.50;95.32;101207.06;4980749;28;20038;-88
2022/11/19 10:35:53;;;;;;;47.05;36.67;;;;;;;1.43;95.81;101211.59;4991967;28;20096;-88
2022/11/19 10:38:40;;;;;;;46.40;36.88;;;;;;;1.48;97.22;101214.03;4986968;28;20058;-88
2022/11/19 10:41:16;;;;;;;42.13;35.70;;;;;;;1.46;94.90;101208.03;4988927;28;20034;-88
2022/11/19 10:43:50;;;;;;;45.05;33.92;;;;;;;1.44;94.75;101215.88;4991099;28;20042;-87
2022/11/19 10:46:21;;;;;;;44.38;33.63;;;;;;;1.41;94.59;101208.19;4991217;28;20038;-89
2022/11/19 10:48:56;;;;;;;41.22;35.45;;;;;;;1.48;95.67;101214.03;4991510;28;20037;-89
2022/11/19 10:51:26;;;;;;;42.10;34.25;;;;;;;1.46;95.14;101210.63;4988442;28;20505;-88
2022/11/19 10:53:54;;;;;;;41.08;34.13;;;;;;;1.41;94.64;101212.53;4984615;28;20027;-88
2022/11/19 10:56:29;;;;;;;81.07;35.88;;;;;;;1.46;94.54;101205.44;4986152;28;20034;-88
2022/11/19 10:58:59;;;;;;;41.47;34.65;;;;;;;1.47;94.58;101207.16;4989094;28;20727;-88
2022/11/19 11:01:31;;;;;;;43.42;33.65;;;;;;;1.46;93.16;101218.41;4988208;28;20113;-89
2022/11/19 11:04:06;;;;;;;46.70;34.72;;;;;;;1.46;94.59;101208.03;4990187;28;20050;-88
2022/11/19 11:06:54;;;;;;;49.30;33.67;;;;;;;1.50;95.08;101207.91;4987012;28;20041;-81
2022/11/19 11:09:31;;;;;;;40.72;32.85;;;;;;;1.47;94.41;101208.00;4989850;28;20022;-81
2022/11/19 11:14:53;;;;;;;40.88;33.13;;;;;;;1.47;94.57;101207.16;4989413;28;20037;-86
2022/11/19 11:17:23;;;;;;;40.65;32.65;;;;;;;1.44;93.78;101207.25;4989246;28;20026;-86
2022/11/19 11:20:25;;;;;;;41.80;32.83;;;;;;;1.53;95.26;101214.72;4989161;28;20026;-86
2022/11/19 11:23:03;;;;;;;38.55;31.80;;;;;;;1.53;93.64;101213.00;4980438;28;20038;-86
2022/11/19 11:25:29;;;;;;;41.03;32.50;;;;;;;1.49;94.08;101205.34;4987064;28;20542;-86
2022/11/19 11:28:19;;;;;;;41.75;33.22;;;;;;;1.55;94.07;101203.41;4993855;28;20033;-80
2022/11/19 11:30:58;;;;;;;35.08;30.80;;;;;;;1.56;93.56;101212.88;4979414;28;20109;-86
2022/11/19 11:33:30;;;;;;;36.95;30.65;;;;;;;1.56;93.30;101196.47;4989119;28;20101;-80
2022/11/19 11:36:03;;;;;;;37.30;30.42;;;;;;;1.54;93.08;101193.94;4989414;28;20034;-87
2022/11/19 11:38:29;;;;;;;36.83;30.23;;;;;;;1.57;92.47;101190.41;4991299;28;20026;-86
2022/11/19 11:41:17;;;;;;;31.58;28.17;;;;;;;1.58;92.37;101200.72;4999345;28;20026;-86
2022/11/19 11:44:00;;;;;;;33.17;29.20;;;;;;;1.52;92.37;101197.47;4999968;28;20096;-79